Shorewood Beach, Washington
Current Conditions -  °F | °C
As of 11:53 AM on Sunday 23 Nov 2014 (Local Time) from KTIW Reporting Station
Scattered Clouds Scattered Clouds  
Wind Chill: 52°   Ceiling: Unl
Heat Index: 52°   Visibility: 10mi
Dew Point: 46°   Wind: 15mph
Humidity: 80%   Direction: 200°SSW
Pressure: 30.13"   Gusts: 23mph
Location:  47.2495°N, 122.621°W
Report Text: KTIW 231953Z 20013G20KT 10SM SCT015 11/08 A3013 RMK AO2 SLP205 T01110078
Loading
Personal Weather Stations






























Interactive Weather Map New forecast layout! Learn more

10-Day Weather Forecast

Advertisements
Track Severe Weather on mobile